createdAt,value
2017-12-24T00:02:01.979Z,100348.13
2017-12-24T00:04:28.637Z,100344.63
2017-12-24T00:06:54.921Z,100354.12
2017-12-24T00:09:21.120Z,100355.34
2017-12-24T00:11:47.324Z,100360.05
2017-12-24T00:14:13.535Z,100355.20
2017-12-24T00:16:39.769Z,100351.38
2017-12-24T00:19:06.029Z,100359.09
2017-12-24T00:21:32.271Z,100351.78
2017-12-24T00:23:58.434Z,100354.84
2017-12-24T00:26:24.609Z,100355.25
2017-12-24T00:28:50.822Z,100362.13
2017-12-24T00:31:17.017Z,100353.95
2017-12-24T00:33:43.260Z,100354.42
2017-12-24T00:36:09.444Z,100359.62
2017-12-24T00:38:35.709Z,100356.95
2017-12-24T00:41:01.925Z,100363.89
2017-12-24T00:43:28.144Z,100367.38
2017-12-24T00:45:54.380Z,100363.06
2017-12-24T00:48:20.581Z,100363.05
2017-12-24T00:50:46.825Z,100359.63
2017-12-24T00:53:13.045Z,100349.27
2017-12-24T00:55:39.216Z,100343.22
2017-12-24T00:58:05.404Z,100344.08
2017-12-24T01:00:31.623Z,100344.09
2017-12-24T01:02:57.857Z,100337.20
2017-12-24T01:05:24.097Z,100332.89
2017-12-24T01:07:50.298Z,100336.80
2017-12-24T01:10:16.509Z,100333.80
2017-12-24T01:12:42.786Z,100337.69
2017-12-24T01:15:08.990Z,100335.98
2017-12-24T01:17:35.197Z,100332.55
2017-12-24T01:20:01.391Z,100330.86
2017-12-24T01:22:27.549Z,100335.25
2017-12-24T01:24:53.751Z,100330.12
2017-12-24T01:27:20.024Z,100337.55
2017-12-24T01:29:46.238Z,100327.72
2017-12-24T01:32:12.397Z,100324.17
2017-12-24T01:34:38.615Z,100317.20
2017-12-24T01:37:04.848Z,100310.34
2017-12-24T01:39:31.084Z,100310.03
2017-12-24T01:41:57.312Z,100301.36
2017-12-24T01:44:23.540Z,100287.51
2017-12-24T01:46:49.721Z,100285.36
2017-12-24T01:49:15.926Z,100288.84
2017-12-24T01:51:42.089Z,100287.34
2017-12-24T01:54:08.255Z,100285.23
2017-12-24T01:56:34.478Z,100280.47
2017-12-24T01:59:00.710Z,100283.83
2017-12-24T02:01:26.908Z,100279.06
2017-12-24T02:03:53.117Z,100281.71
2017-12-24T02:06:19.297Z,100269.62
2017-12-24T02:08:45.540Z,100265.25
2017-12-24T02:11:11.769Z,100275.64
2017-12-24T02:13:37.961Z,100270.51
2017-12-24T02:16:04.148Z,100268.79
2017-12-24T02:18:30.353Z,100265.73
2017-12-24T02:20:56.560Z,100275.17
2017-12-24T02:23:22.750Z,100269.55
2017-12-24T02:25:48.956Z,100269.56
2017-12-24T02:28:15.127Z,100267.52
2017-12-24T02:30:41.321Z,100264.50
2017-12-24T02:33:07.500Z,100262.29
2017-12-24T02:35:33.672Z,100254.06
2017-12-24T02:37:59.952Z,100254.08
2017-12-24T02:40:26.210Z,100252.71
2017-12-24T02:42:52.421Z,100253.61
2017-12-24T02:45:18.632Z,100247.05
2017-12-24T02:47:44.856Z,100242.75
2017-12-24T02:50:11.030Z,100236.71
2017-12-24T02:52:37.198Z,100235.78
2017-12-24T02:55:03.493Z,100231.03
2017-12-24T02:57:29.669Z,100240.15
2017-12-24T02:59:55.849Z,100230.67
2017-12-24T03:02:22.080Z,100223.27
2017-12-24T03:04:48.254Z,100217.27
2017-12-24T03:07:14.489Z,100222.48
2017-12-24T03:09:40.760Z,100216.36
2017-12-24T03:12:07.016Z,100217.70
2017-12-24T03:14:33.188Z,100232.81
2017-12-24T03:16:59.495Z,100226.72
2017-12-24T03:19:25.723Z,100226.41
2017-12-24T03:21:51.933Z,100221.47
2017-12-24T03:24:18.154Z,100219.84
2017-12-24T03:26:44.349Z,100213.40
2017-12-24T03:29:10.573Z,100212.50
2017-12-24T03:31:36.785Z,100211.67
2017-12-24T03:34:02.939Z,100213.40
2017-12-24T03:36:29.196Z,100210.45
2017-12-24T03:38:55.483Z,100210.89
2017-12-24T03:41:21.654Z,100219.17
2017-12-24T03:43:47.909Z,100210.89
2017-12-24T03:46:14.111Z,100208.31
2017-12-24T03:48:40.336Z,100205.30
2017-12-24T03:51:06.508Z,100203.63
2017-12-24T03:53:32.724Z,100204.81
2017-12-24T03:55:58.901Z,100196.28
2017-12-24T03:58:25.079Z,100195.42
2017-12-24T04:00:51.310Z,100204.46
2017-12-24T04:03:17.535Z,100206.53
2017-12-24T04:05:43.730Z,100209.56
2017-12-24T04:08:09.940Z,100207.02
2017-12-24T04:10:36.088Z,100204.91
2017-12-24T04:13:02.257Z,100200.21
2017-12-24T04:15:28.465Z,100203.23
2017-12-24T04:17:54.656Z,100202.41
2017-12-24T04:20:20.840Z,100190.83
2017-12-24T04:22:47.025Z,100191.63
2017-12-24T04:25:13.180Z,100188.23
2017-12-24T04:27:39.409Z,100190.35
2017-12-24T04:30:05.617Z,100197.67
2017-12-24T04:32:31.816Z,100191.27
2017-12-24T04:34:58.044Z,100195.58
2017-12-24T04:37:24.272Z,100202.47
2017-12-24T04:39:50.456Z,100196.87
2017-12-24T04:42:16.620Z,100195.16
2017-12-24T04:44:42.831Z,100198.95
2017-12-24T04:47:09.057Z,100204.97
2017-12-24T04:49:35.265Z,100201.10
2017-12-24T04:52:01.481Z,100203.28
2017-12-24T04:54:27.624Z,100205.41
2017-12-24T04:56:53.810Z,100203.21
2017-12-24T04:59:20.020Z,100198.45
2017-12-24T05:01:46.197Z,100204.13
2017-12-24T05:04:12.406Z,100190.39
2017-12-24T05:06:38.936Z,100191.19
2017-12-24T05:09:05.084Z,100185.16
2017-12-24T05:11:31.265Z,100196.78
2017-12-24T05:13:57.484Z,100188.95
2017-12-24T05:16:23.789Z,100173.41
2017-12-24T05:18:49.951Z,100183.35
2017-12-24T05:21:16.157Z,100161.73
2017-12-24T05:23:42.392Z,100166.64
2017-12-24T05:26:08.580Z,100163.47
2017-12-24T05:28:34.778Z,100144.03
2017-12-24T05:31:00.939Z,100145.19
2017-12-24T05:33:27.205Z,100144.81
2017-12-24T05:35:53.464Z,100152.64
2017-12-24T05:38:19.660Z,100151.34
2017-12-24T05:40:45.857Z,100154.31
2017-12-24T05:43:12.077Z,100157.30
2017-12-24T05:45:38.248Z,100163.69
2017-12-24T05:48:04.448Z,100165.82
2017-12-24T05:50:30.722Z,100170.18
2017-12-24T05:52:56.890Z,100167.58
2017-12-24T05:55:23.101Z,100154.06
2017-12-24T05:57:49.345Z,100154.92
2017-12-24T06:00:15.560Z,100168.29
2017-12-24T06:02:41.773Z,100153.05
2017-12-24T06:05:08.025Z,100141.58
2017-12-24T06:07:34.206Z,100151.08
2017-12-24T06:10:00.443Z,100138.45
2017-12-24T06:12:26.685Z,100145.42
2017-12-24T06:14:52.892Z,100144.84
2017-12-24T06:17:19.241Z,100138.34
2017-12-24T06:19:45.452Z,100133.51
2017-12-24T06:22:11.602Z,100127.52
2017-12-24T06:24:37.761Z,100134.06
2017-12-24T06:27:04.312Z,100143.17
2017-12-24T06:29:30.509Z,100130.59
2017-12-24T06:31:56.656Z,100129.30
2017-12-24T06:34:22.977Z,100131.81
2017-12-24T06:36:49.130Z,100134.48
2017-12-24T06:39:15.328Z,100147.86
2017-12-24T06:41:41.584Z,100145.30
2017-12-24T06:44:07.809Z,100150.86
2017-12-24T06:46:33.968Z,100141.25
2017-12-24T06:49:00.204Z,100146.80
2017-12-24T06:51:26.405Z,100141.95
2017-12-24T06:53:52.641Z,100134.12
2017-12-24T06:56:18.860Z,100129.75
2017-12-24T06:58:45.065Z,100132.34
2017-12-24T07:01:11.213Z,100121.52
2017-12-24T07:03:37.482Z,100128.02
2017-12-24T07:06:03.700Z,100129.21
2017-12-24T07:08:29.939Z,100130.46
2017-12-24T07:10:56.324Z,100124.39
2017-12-24T07:13:22.577Z,100124.45
2017-12-24T07:15:48.736Z,100134.84
2017-12-24T07:18:14.933Z,100127.02
2017-12-24T07:20:41.136Z,100124.83
2017-12-24T07:23:07.365Z,100118.31
2017-12-24T07:25:33.593Z,100119.50
2017-12-24T07:27:59.776Z,100120.28
2017-12-24T07:30:26.010Z,100116.81
2017-12-24T07:32:52.336Z,100114.10
2017-12-24T07:35:18.537Z,100108.03
2017-12-24T07:37:44.728Z,100114.91
2017-12-24T07:40:14.902Z,100119.23
2017-12-24T07:42:41.139Z,100119.23
2017-12-24T07:45:07.363Z,100123.97
2017-12-24T07:47:33.801Z,100117.38
2017-12-24T07:50:02.311Z,100125.52
2017-12-24T07:52:28.544Z,100131.16
2017-12-24T07:54:54.835Z,100128.52
2017-12-24T07:57:21.073Z,100128.18
2017-12-24T07:59:47.252Z,100118.98
2017-12-24T08:02:13.451Z,100114.96
2017-12-24T08:04:39.657Z,100125.70
2017-12-24T08:07:05.832Z,100116.93
2017-12-24T08:09:32.047Z,100116.83
2017-12-24T08:11:58.201Z,100110.29
2017-12-24T08:14:24.348Z,100095.91
2017-12-24T08:16:50.562Z,100089.73
2017-12-24T08:19:16.892Z,100092.58
2017-12-24T08:21:43.072Z,100097.23
2017-12-24T08:24:09.291Z,100097.94
2017-12-24T08:26:35.476Z,100099.16
2017-12-24T08:29:01.645Z,100108.59
2017-12-24T08:31:27.836Z,100101.95
2017-12-24T08:33:54.011Z,100102.78
2017-12-24T08:36:20.207Z,100088.47
2017-12-24T08:38:46.411Z,100084.60
2017-12-24T08:41:12.585Z,100082.87
2017-12-24T08:43:38.737Z,100079.31
2017-12-24T08:46:04.953Z,100086.29
2017-12-24T08:48:31.124Z,100063.17
2017-12-24T08:50:57.325Z,100052.75
2017-12-24T08:53:23.584Z,100053.97
2017-12-24T08:55:49.760Z,100060.04
2017-12-24T08:58:16.078Z,100063.43
2017-12-24T09:00:42.336Z,100078.95
2017-12-24T09:03:08.870Z,100075.31
2017-12-24T09:05:35.170Z,100063.58
2017-12-24T09:08:01.477Z,100059.67
2017-12-24T09:10:28.076Z,100069.62
2017-12-24T09:12:55.094Z,100067.34
2017-12-24T09:15:21.382Z,100068.17
2017-12-24T09:17:47.576Z,100072.80
2017-12-24T09:20:13.748Z,100063.69
2017-12-24T09:22:39.928Z,100070.53
2017-12-24T09:25:06.088Z,100066.64
2017-12-24T09:27:32.288Z,100063.15
2017-12-24T09:29:58.545Z,100060.84
2017-12-24T09:32:24.740Z,100053.74
2017-12-24T09:34:50.926Z,100053.81
2017-12-24T09:37:17.156Z,100051.70
2017-12-24T09:39:43.392Z,100043.72
2017-12-24T09:42:09.576Z,100039.44
2017-12-24T09:44:35.801Z,100037.92
2017-12-24T09:47:01.979Z,100041.33
2017-12-24T09:49:28.219Z,100033.34
2017-12-24T09:51:54.488Z,100024.96
2017-12-24T09:54:22.882Z,100027.34
2017-12-24T09:56:49.586Z,100028.00
2017-12-24T09:59:15.849Z,100020.67
2017-12-24T10:01:42.009Z,100018.53
2017-12-24T10:04:08.188Z,100019.50
2017-12-24T10:06:34.476Z,100011.25
2017-12-24T10:09:00.672Z,100015.41
2017-12-24T10:11:26.860Z,100009.14
2017-12-24T10:13:53.117Z,100009.38
2017-12-24T10:16:19.311Z,100017.39
2017-12-24T10:18:45.517Z,100006.77
2017-12-24T10:21:11.793Z,99999.19
2017-12-24T10:23:38.805Z,99991.18
2017-12-24T10:26:05.202Z,99987.38
2017-12-24T10:28:31.468Z,99981.02
2017-12-24T10:30:57.856Z,99962.98
2017-12-24T10:33:24.153Z,99960.31
2017-12-24T10:35:50.370Z,99953.59
2017-12-24T10:38:16.556Z,99948.30
2017-12-24T10:40:42.773Z,99945.23
2017-12-24T10:43:08.995Z,99948.86
2017-12-24T10:45:35.200Z,99940.60
2017-12-24T10:48:01.413Z,99938.05
2017-12-24T10:50:27.677Z,99939.02
2017-12-24T10:52:54.792Z,99938.63
2017-12-24T10:55:20.974Z,99940.59
2017-12-24T10:57:47.216Z,99939.92
2017-12-24T11:00:14.377Z,99932.95
2017-12-24T11:02:41.000Z,99922.61
2017-12-24T11:05:07.443Z,99929.58
2017-12-24T11:07:33.635Z,99934.06
2017-12-24T11:09:59.884Z,99938.30
2017-12-24T11:12:26.117Z,99940.19
2017-12-24T11:14:52.279Z,99940.55
2017-12-24T11:17:18.501Z,99931.31
2017-12-24T11:19:44.729Z,99933.94
2017-12-24T11:22:10.941Z,99924.78
2017-12-24T11:24:37.109Z,99928.60
2017-12-24T11:27:03.300Z,99923.70
2017-12-24T11:29:29.473Z,99923.88
2017-12-24T11:31:55.724Z,99924.19
2017-12-24T11:34:21.929Z,99920.70
2017-12-24T11:36:48.141Z,99917.50
2017-12-24T11:39:14.453Z,99926.33
2017-12-24T11:41:40.656Z,99929.33
2017-12-24T11:44:06.869Z,99926.97
2017-12-24T11:46:33.187Z,99922.95
2017-12-24T11:48:59.377Z,99927.62
2017-12-24T11:51:25.564Z,99925.28
2017-12-24T11:53:51.829Z,99927.40
2017-12-24T11:56:18.184Z,99923.21
2017-12-24T11:58:44.336Z,99919.13
2017-12-24T12:01:10.484Z,99926.23
2017-12-24T12:03:36.706Z,99918.47
2017-12-24T12:06:02.873Z,99918.57
2017-12-24T12:08:29.050Z,99920.70
2017-12-24T12:10:55.248Z,99910.61
2017-12-24T12:13:21.437Z,99907.80
2017-12-24T12:15:47.597Z,99919.23
2017-12-24T12:18:13.835Z,99915.15
2017-12-24T12:20:40.016Z,99909.72
2017-12-24T12:23:06.212Z,99912.15
2017-12-24T12:25:32.418Z,99919.16
2017-12-24T12:27:58.597Z,99918.02
2017-12-24T12:30:24.946Z,99919.06
2017-12-24T12:32:51.277Z,99921.81
2017-12-24T12:35:17.661Z,99922.15
2017-12-24T12:37:44.074Z,99924.41
2017-12-24T12:40:10.570Z,99937.91
2017-12-24T12:42:36.930Z,99928.20
2017-12-24T12:45:03.449Z,99922.84
2017-12-24T12:47:29.881Z,99929.56
2017-12-24T12:49:56.249Z,99917.86
2017-12-24T12:52:22.614Z,99923.46
2017-12-24T12:54:49.119Z,99924.33
2017-12-24T12:57:15.542Z,99930.45
2017-12-24T12:59:41.940Z,99922.41
2017-12-24T13:02:08.353Z,99921.05
2017-12-24T13:04:34.809Z,99925.23
2017-12-24T13:07:01.203Z,99932.95
2017-12-24T13:09:27.873Z,99932.59
2017-12-24T13:11:54.389Z,99932.66
2017-12-24T13:14:20.846Z,99930.31
2017-12-24T13:16:47.281Z,99940.29
2017-12-24T13:19:13.632Z,99934.50
2017-12-24T13:21:39.989Z,99927.58
2017-12-24T13:24:06.466Z,99935.28
2017-12-24T13:26:32.870Z,99941.57
2017-12-24T13:28:59.253Z,99945.02
2017-12-24T13:31:25.694Z,99951.58
2017-12-24T13:33:52.106Z,99956.91
2017-12-24T13:36:18.486Z,99947.73
2017-12-24T13:38:44.893Z,99941.83
2017-12-24T13:41:11.442Z,99948.28
2017-12-24T13:43:37.827Z,99956.66
2017-12-24T13:46:04.264Z,99976.15
2017-12-24T13:48:30.671Z,99971.41
2017-12-24T13:50:57.041Z,99976.25
2017-12-24T13:53:23.445Z,99979.78
2017-12-24T13:55:49.791Z,99975.56
2017-12-24T13:58:16.157Z,99984.22
2017-12-24T14:00:42.582Z,99990.03
2017-12-24T14:03:08.986Z,99988.47
2017-12-24T14:05:35.387Z,99994.98
2017-12-24T14:08:01.845Z,99998.50
2017-12-24T14:10:28.258Z,99998.92
2017-12-24T14:12:54.633Z,100000.95
2017-12-24T14:15:21.066Z,99992.28
2017-12-24T14:17:47.434Z,99992.42
2017-12-24T14:20:13.821Z,99990.45
2017-12-24T14:22:40.233Z,99996.58
2017-12-24T14:25:06.637Z,100000.07
2017-12-24T14:27:33.021Z,100007.41
2017-12-24T14:29:59.376Z,100004.88
2017-12-24T14:32:25.765Z,100017.59
2017-12-24T14:34:52.183Z,100022.27
2017-12-24T14:37:18.610Z,100026.67
2017-12-24T14:39:45.017Z,100039.25
2017-12-24T14:42:11.448Z,100050.23
2017-12-24T14:44:37.861Z,100051.98
2017-12-24T14:47:04.311Z,100054.44
2017-12-24T14:49:30.721Z,100058.83
2017-12-24T14:51:57.185Z,100059.54
2017-12-24T14:54:23.582Z,100058.59
2017-12-24T14:56:49.989Z,100060.71
2017-12-24T14:59:16.406Z,100051.66
2017-12-24T15:01:42.781Z,100057.59
2017-12-24T15:04:09.170Z,100058.55
2017-12-24T15:06:35.633Z,100059.50
2017-12-24T15:09:02.150Z,100061.23
2017-12-24T15:11:28.612Z,100049.77
2017-12-24T15:13:55.097Z,100052.93
2017-12-24T15:16:21.511Z,100060.87
2017-12-24T15:18:47.863Z,100063.73
2017-12-24T15:21:14.320Z,100068.52
2017-12-24T15:23:40.664Z,100069.85
2017-12-24T15:26:07.058Z,100062.90
2017-12-24T15:28:33.426Z,100063.81
2017-12-24T15:30:59.799Z,100072.72
2017-12-24T15:33:26.206Z,100076.23
2017-12-24T15:35:52.634Z,100086.17
2017-12-24T15:38:18.993Z,100087.01
2017-12-24T15:40:45.442Z,100075.36
2017-12-24T15:43:11.965Z,100087.17
2017-12-24T15:45:38.323Z,100083.59
2017-12-24T15:48:04.716Z,100085.59
2017-12-24T15:50:31.186Z,100091.11
2017-12-24T15:52:57.617Z,100097.52
2017-12-24T15:55:24.029Z,100103.52
2017-12-24T15:57:50.403Z,100100.80
2017-12-24T16:00:16.858Z,100098.08
2017-12-24T16:02:43.262Z,100101.67
2017-12-24T16:05:09.661Z,100101.49
2017-12-24T16:07:36.065Z,100107.35
2017-12-24T16:10:02.410Z,100101.56
2017-12-24T16:12:28.946Z,100105.95
2017-12-24T16:14:55.325Z,100100.12
2017-12-24T16:17:21.689Z,100099.60
2017-12-24T16:19:48.057Z,100104.66
2017-12-24T16:22:14.458Z,100108.58
2017-12-24T16:24:40.889Z,100103.28
2017-12-24T16:27:07.330Z,100102.37
2017-12-24T16:29:34.563Z,100105.45
2017-12-24T16:32:00.912Z,100108.33
2017-12-24T16:34:27.358Z,100114.26
2017-12-24T16:36:53.907Z,100111.83
2017-12-24T16:39:20.243Z,100112.95
2017-12-24T16:41:46.661Z,100116.27
2017-12-24T16:44:13.008Z,100113.73
2017-12-24T16:46:39.441Z,100123.88
2017-12-24T16:49:05.863Z,100120.66
2017-12-24T16:51:32.246Z,100122.08
2017-12-24T16:53:58.593Z,100121.98
2017-12-24T16:56:25.039Z,100128.37
2017-12-24T16:58:51.417Z,100134.23
2017-12-24T17:01:17.786Z,100149.35
2017-12-24T17:03:44.165Z,100145.72
2017-12-24T17:06:10.529Z,100141.55
2017-12-24T17:08:36.908Z,100143.92
2017-12-24T17:11:03.317Z,100155.97
2017-12-24T17:13:29.767Z,100158.77
2017-12-24T17:15:56.098Z,100173.44
2017-12-24T17:18:22.772Z,100182.80
2017-12-24T17:20:49.117Z,100188.14
2017-12-24T17:23:15.494Z,100199.06
2017-12-24T17:25:41.949Z,100190.75
2017-12-24T17:28:08.309Z,100198.06
2017-12-24T17:30:34.635Z,100198.98
2017-12-24T17:33:01.102Z,100196.78
2017-12-24T17:35:28.088Z,100206.19
2017-12-24T17:37:54.486Z,100201.61
2017-12-24T17:40:20.894Z,100196.55
2017-12-24T17:42:47.369Z,100189.73
2017-12-24T17:45:13.765Z,100188.96
2017-12-24T17:47:40.164Z,100197.70
2017-12-24T17:50:06.553Z,100192.38
2017-12-24T17:52:32.901Z,100208.96
2017-12-24T17:54:59.442Z,100209.95
2017-12-24T17:57:25.793Z,100207.02
2017-12-24T17:59:52.161Z,100208.94
2017-12-24T18:02:18.558Z,100206.66
2017-12-24T18:04:44.966Z,100209.47
2017-12-24T18:07:11.329Z,100214.13
2017-12-24T18:09:37.709Z,100209.67
2017-12-24T18:12:04.107Z,100218.34
2017-12-24T18:14:30.459Z,100219.54
2017-12-24T18:16:57.139Z,100232.98
2017-12-24T18:19:23.676Z,100244.78
2017-12-24T18:21:50.101Z,100245.34
2017-12-24T18:24:17.430Z,100235.59
2017-12-24T18:26:43.829Z,100232.31
2017-12-24T18:29:10.173Z,100229.64
2017-12-24T18:31:36.586Z,100237.03
2017-12-24T18:34:02.950Z,100253.72
2017-12-24T18:36:29.356Z,100260.89
2017-12-24T18:38:55.758Z,100270.83
2017-12-24T18:41:22.106Z,100285.73
2017-12-24T18:43:48.494Z,100275.13
2017-12-24T18:46:14.914Z,100274.00
2017-12-24T18:48:41.277Z,100276.05
2017-12-24T18:51:07.698Z,100280.20
2017-12-24T18:53:34.147Z,100288.31
2017-12-24T18:56:00.528Z,100302.28
2017-12-24T18:58:26.881Z,100308.52
2017-12-24T19:00:53.285Z,100306.73
2017-12-24T19:03:19.642Z,100308.91
2017-12-24T19:05:46.035Z,100310.39
2017-12-24T19:08:12.606Z,100307.37
2017-12-24T19:10:38.974Z,100311.98
2017-12-24T19:13:05.349Z,100326.75
2017-12-24T19:15:31.750Z,100341.03
2017-12-24T19:17:58.116Z,100347.84
2017-12-24T19:20:24.478Z,100353.18
2017-12-24T19:22:50.941Z,100344.57
2017-12-24T19:25:17.309Z,100347.55
2017-12-24T19:27:43.684Z,100341.76
2017-12-24T19:30:10.138Z,100342.88
2017-12-24T19:32:36.556Z,100352.83
2017-12-24T19:35:02.966Z,100363.83
2017-12-24T19:37:29.409Z,100360.31
2017-12-24T19:39:55.779Z,100367.25
2017-12-24T19:42:23.041Z,100364.12
2017-12-24T19:44:49.470Z,100365.63
2017-12-24T19:47:15.844Z,100370.50
2017-12-24T19:49:42.233Z,100371.31
2017-12-24T19:52:08.617Z,100381.98
2017-12-24T19:54:35.034Z,100386.78
2017-12-24T19:57:01.367Z,100375.08
2017-12-24T19:59:27.826Z,100370.84
2017-12-24T20:01:54.174Z,100369.66
2017-12-24T20:04:20.599Z,100371.03
2017-12-24T20:06:46.983Z,100383.02
2017-12-24T20:09:13.346Z,100387.69
2017-12-24T20:11:39.728Z,100390.19
2017-12-24T20:14:06.249Z,100396.28
2017-12-24T20:16:32.665Z,100393.91
2017-12-24T20:18:59.031Z,100391.25
2017-12-24T20:21:25.433Z,100388.01
2017-12-24T20:23:51.816Z,100393.92
2017-12-24T20:26:18.183Z,100396.80
2017-12-24T20:28:44.604Z,100408.69
2017-12-24T20:31:10.952Z,100413.87
2017-12-24T20:33:37.646Z,100411.77
2017-12-24T20:36:04.089Z,100403.05
2017-12-24T20:38:30.490Z,100398.73
2017-12-24T20:40:56.841Z,100395.37
2017-12-24T20:43:23.248Z,100407.30
2017-12-24T20:45:49.606Z,100416.77
2017-12-24T20:48:16.018Z,100415.14
2017-12-24T20:50:42.486Z,100416.75
2017-12-24T20:53:08.805Z,100411.90
2017-12-24T20:55:35.157Z,100410.14
2017-12-24T20:58:01.626Z,100420.80
2017-12-24T21:00:28.022Z,100427.90
2017-12-24T21:02:54.415Z,100437.73
2017-12-24T21:05:20.805Z,100435.00
2017-12-24T21:07:47.247Z,100435.00
2017-12-24T21:10:13.667Z,100438.19
2017-12-24T21:12:40.168Z,100441.23
2017-12-24T21:15:06.621Z,100443.94
2017-12-24T21:17:33.009Z,100447.92
2017-12-24T21:19:59.514Z,100449.22
2017-12-24T21:22:26.162Z,100454.32
2017-12-24T21:24:52.540Z,100460.87
2017-12-24T21:27:19.019Z,100467.48
2017-12-24T21:29:45.357Z,100466.66
2017-12-24T21:32:11.777Z,100469.83
2017-12-24T21:34:38.188Z,100480.31
2017-12-24T21:37:04.621Z,100470.33
2017-12-24T21:39:30.979Z,100474.14
2017-12-24T21:41:57.406Z,100476.59
2017-12-24T21:44:23.819Z,100478.88
2017-12-24T21:46:50.186Z,100479.27
2017-12-24T21:49:16.621Z,100485.80
2017-12-24T21:51:43.005Z,100487.61
2017-12-24T21:54:09.357Z,100486.80
2017-12-24T21:56:35.816Z,100486.41
2017-12-24T21:59:02.206Z,100487.40
2017-12-24T22:01:28.576Z,100497.98
2017-12-24T22:03:54.995Z,100499.36
2017-12-24T22:06:21.387Z,100498.53
2017-12-24T22:08:47.781Z,100496.46
2017-12-24T22:11:14.170Z,100498.88
2017-12-24T22:13:40.545Z,100503.50
2017-12-24T22:16:06.897Z,100507.47
2017-12-24T22:18:33.280Z,100511.06
2017-12-24T22:20:59.741Z,100510.25
2017-12-24T22:23:26.094Z,100509.76
2017-12-24T22:25:52.505Z,100508.51
2017-12-24T22:28:18.909Z,100505.81
2017-12-24T22:30:45.274Z,100506.73
2017-12-24T22:33:11.764Z,100504.56
2017-12-24T22:35:38.090Z,100508.09
2017-12-24T22:38:04.449Z,100507.61
2017-12-24T22:40:30.849Z,100502.91
2017-12-24T22:42:57.253Z,100500.64
2017-12-24T22:45:23.628Z,100499.77
2017-12-24T22:47:50.017Z,100505.05
2017-12-24T22:50:16.372Z,100507.66
2017-12-24T22:52:42.757Z,100501.66
2017-12-24T22:55:09.177Z,100509.78
2017-12-24T22:57:35.620Z,100498.47
2017-12-24T23:00:01.977Z,100496.42
2017-12-24T23:02:28.472Z,100506.43
2017-12-24T23:04:54.893Z,100501.69
2017-12-24T23:07:21.313Z,100493.95
2017-12-24T23:09:47.708Z,100490.78
2017-12-24T23:12:14.117Z,100490.16
2017-12-24T23:14:40.533Z,100491.87
2017-12-24T23:17:06.992Z,100493.51
2017-12-24T23:19:33.344Z,100489.29
2017-12-24T23:21:59.724Z,100493.08
2017-12-24T23:24:26.176Z,100491.78
2017-12-24T23:26:52.588Z,100485.08
2017-12-24T23:29:19.014Z,100494.21
2017-12-24T23:31:45.404Z,100492.52
2017-12-24T23:34:11.790Z,100496.31
2017-12-24T23:36:38.198Z,100496.78
2017-12-24T23:39:04.637Z,100490.30
2017-12-24T23:41:31.064Z,100501.39
2017-12-24T23:43:57.453Z,100512.31
2017-12-24T23:46:23.864Z,100500.48
2017-12-24T23:48:50.237Z,100509.30
2017-12-24T23:51:16.692Z,100507.09
2017-12-24T23:53:43.077Z,100506.87
2017-12-24T23:56:09.492Z,100507.66
2017-12-24T23:58:35.865Z,100514.14
